createdAt,value
2017-12-24T00:00:56.203Z,101480
2017-12-24T00:03:24.912Z,101482
2017-12-24T00:18:50.387Z,101465
2017-12-24T00:21:19.221Z,101466
2017-12-24T00:23:47.168Z,101473
2017-12-24T00:26:15.064Z,101475
2017-12-24T00:28:42.991Z,101477
2017-12-24T00:31:11.851Z,101479
2017-12-24T00:33:39.812Z,101494
2017-12-24T00:36:08.033Z,101487
2017-12-24T00:38:36.012Z,101490
2017-12-24T00:41:03.915Z,101493
2017-12-24T00:43:31.864Z,101488
2017-12-24T00:46:00.519Z,101496
2017-12-24T00:48:29.171Z,101490
2017-12-24T00:50:58.848Z,101493
2017-12-24T00:53:26.825Z,101484
2017-12-24T00:55:54.773Z,101484
2017-12-24T00:58:22.699Z,101495
2017-12-24T01:00:50.632Z,101488
2017-12-24T01:03:18.567Z,101489
2017-12-24T01:05:46.487Z,101489
2017-12-24T01:08:14.472Z,101466
2017-12-24T01:10:42.424Z,101476
2017-12-24T01:13:10.355Z,101489
2017-12-24T01:15:38.720Z,101488
2017-12-24T01:18:06.676Z,101478
2017-12-24T01:20:34.579Z,101481
2017-12-24T01:23:02.652Z,101481
2017-12-24T01:25:30.636Z,101472
2017-12-24T01:27:58.561Z,101470
2017-12-24T01:30:26.556Z,101464
2017-12-24T01:32:54.508Z,101477
2017-12-24T01:35:22.496Z,101478
2017-12-24T01:37:50.772Z,101485
2017-12-24T01:40:18.759Z,101487
2017-12-24T01:42:46.734Z,101495
2017-12-24T01:45:14.676Z,101498
2017-12-24T01:47:51.892Z,101497
2017-12-24T01:50:19.837Z,101500
2017-12-24T01:52:51.441Z,101500
2017-12-24T01:55:19.387Z,101502
2017-12-24T01:57:47.351Z,101503
2017-12-24T02:00:15.559Z,101509
2017-12-24T02:02:43.496Z,101510
2017-12-24T02:05:11.460Z,101511
2017-12-24T02:07:39.419Z,101521
2017-12-24T02:10:07.365Z,101525
2017-12-24T02:12:35.290Z,101523
2017-12-24T02:15:03.252Z,101532
2017-12-24T02:17:31.184Z,101515
2017-12-24T02:19:59.108Z,101535
2017-12-24T02:22:27.044Z,101531
2017-12-24T02:24:55.371Z,101530
2017-12-24T02:27:24.097Z,101530
2017-12-24T02:29:52.015Z,101513
2017-12-24T02:32:19.960Z,101522
2017-12-24T02:34:47.893Z,101518
2017-12-24T02:37:15.834Z,101507
2017-12-24T02:39:43.797Z,101514
2017-12-24T02:42:12.491Z,101505
2017-12-24T02:44:41.579Z,101494
2017-12-24T02:47:10.295Z,101493
2017-12-24T02:49:38.224Z,101491
2017-12-24T02:52:06.917Z,101489
2017-12-24T02:54:34.827Z,101504
2017-12-24T02:57:02.772Z,101493
2017-12-24T02:59:30.689Z,101475
2017-12-24T03:01:59.132Z,101480
2017-12-24T03:04:33.473Z,101482
2017-12-24T03:07:01.608Z,101493
2017-12-24T03:09:30.283Z,101493
2017-12-24T03:11:59.036Z,101488
2017-12-24T03:14:26.947Z,101490
2017-12-24T03:16:54.887Z,101497
2017-12-24T03:19:22.817Z,101489
2017-12-24T03:21:51.464Z,101485
2017-12-24T03:24:20.569Z,101485
2017-12-24T03:26:48.503Z,101490
2017-12-24T03:29:16.444Z,101490
2017-12-24T03:31:44.379Z,101491
2017-12-24T03:34:12.297Z,101492
2017-12-24T03:36:40.204Z,101478
2017-12-24T03:39:08.199Z,101487
2017-12-24T03:41:36.460Z,101480
2017-12-24T03:44:04.408Z,101469
2017-12-24T03:46:32.375Z,101464
2017-12-24T03:49:01.064Z,101467
2017-12-24T03:51:29.760Z,101456
2017-12-24T03:53:58.428Z,101464
2017-12-24T03:56:26.389Z,101462
2017-12-24T03:58:54.783Z,101460
2017-12-24T04:01:22.711Z,101457
2017-12-24T04:03:50.871Z,101459
2017-12-24T04:06:18.802Z,101452
2017-12-24T04:08:47.658Z,101452
2017-12-24T04:11:15.567Z,101455
2017-12-24T04:13:44.245Z,101451
2017-12-24T04:16:12.919Z,101446
2017-12-24T04:18:40.856Z,101454
2017-12-24T04:21:08.812Z,101442
2017-12-24T04:23:37.167Z,101444
2017-12-24T04:26:05.091Z,101439
2017-12-24T04:28:33.760Z,101430
2017-12-24T04:31:01.707Z,101442
2017-12-24T04:33:29.639Z,101435
2017-12-24T04:35:58.302Z,101425
2017-12-24T04:38:26.271Z,101433
2017-12-24T04:40:54.253Z,101422
2017-12-24T04:43:22.548Z,101424
2017-12-24T04:45:51.275Z,101422
2017-12-24T04:48:19.187Z,101413
2017-12-24T04:50:47.132Z,101416
2017-12-24T04:53:15.132Z,101411
2017-12-24T04:55:43.089Z,101399
2017-12-24T04:58:11.039Z,101404
2017-12-24T05:00:38.942Z,101399
2017-12-24T05:03:06.880Z,101399
2017-12-24T05:05:34.880Z,101400
2017-12-24T05:08:03.351Z,101398
2017-12-24T05:10:31.280Z,101406
2017-12-24T05:12:59.207Z,101394
2017-12-24T05:15:27.871Z,101402
2017-12-24T05:17:55.788Z,101399
2017-12-24T05:20:23.752Z,101382
2017-12-24T05:22:52.080Z,101389
2017-12-24T05:25:19.983Z,101384
2017-12-24T05:27:47.898Z,101387
2017-12-24T05:30:15.872Z,101396
2017-12-24T05:32:43.766Z,101397
2017-12-24T05:35:12.446Z,101388
2017-12-24T05:37:40.400Z,101379
2017-12-24T05:40:08.892Z,101385
2017-12-24T05:42:36.871Z,101389
2017-12-24T05:45:05.519Z,101395
2017-12-24T05:47:33.452Z,101382
2017-12-24T05:50:01.379Z,101394
2017-12-24T05:52:29.319Z,101381
2017-12-24T05:54:57.300Z,101389
2017-12-24T05:57:25.184Z,101389
2017-12-24T05:59:53.066Z,101388
2017-12-24T06:02:21.005Z,101384
2017-12-24T06:04:49.313Z,101380
2017-12-24T06:07:17.977Z,101379
2017-12-24T06:09:45.859Z,101363
2017-12-24T06:12:13.762Z,101371
2017-12-24T06:14:41.667Z,101380
2017-12-24T06:17:09.895Z,101370
2017-12-24T06:19:37.812Z,101366
2017-12-24T06:22:05.747Z,101361
2017-12-24T06:24:33.766Z,101357
2017-12-24T06:27:01.720Z,101340
2017-12-24T06:29:29.687Z,101360
2017-12-24T06:31:57.897Z,101352
2017-12-24T06:34:26.566Z,101351
2017-12-24T06:36:54.483Z,101343
2017-12-24T06:39:22.515Z,101327
2017-12-24T06:41:50.471Z,101344
2017-12-24T06:44:18.464Z,101342
2017-12-24T06:46:47.145Z,101343
2017-12-24T06:49:15.835Z,101333
2017-12-24T06:51:44.799Z,101345
2017-12-24T06:54:12.711Z,101339
2017-12-24T06:56:40.611Z,101333
2017-12-24T06:59:08.627Z,101322
2017-12-24T07:01:37.999Z,101337
2017-12-24T07:04:05.919Z,101327
2017-12-24T07:06:34.595Z,101325
2017-12-24T07:09:03.455Z,101328
2017-12-24T07:11:31.428Z,101335
2017-12-24T07:13:59.351Z,101336
2017-12-24T07:16:27.821Z,101336
2017-12-24T07:18:55.744Z,101330
2017-12-24T07:21:23.691Z,101327
2017-12-24T07:23:51.660Z,101319
2017-12-24T07:26:19.578Z,101323
2017-12-24T07:28:48.236Z,101329
2017-12-24T07:31:16.220Z,101343
2017-12-24T07:33:44.883Z,101320
2017-12-24T07:36:12.792Z,101331
2017-12-24T07:38:40.745Z,101330
2017-12-24T07:41:09.015Z,101324
2017-12-24T07:43:36.952Z,101324
2017-12-24T07:46:04.897Z,101330
2017-12-24T07:48:32.820Z,101336
2017-12-24T07:51:00.760Z,101328
2017-12-24T07:53:28.694Z,101330
2017-12-24T07:55:56.931Z,101327
2017-12-24T07:58:25.579Z,101334
2017-12-24T08:00:53.500Z,101335
2017-12-24T08:03:22.160Z,101332
2017-12-24T08:05:50.069Z,101322
2017-12-24T08:08:18.727Z,101315
2017-12-24T08:10:47.371Z,101307
2017-12-24T08:13:15.291Z,101306
2017-12-24T08:15:43.944Z,101312
2017-12-24T08:18:12.279Z,101310
2017-12-24T08:20:40.179Z,101304
2017-12-24T08:23:08.075Z,101317
2017-12-24T08:25:37.464Z,101316
2017-12-24T08:28:05.347Z,101319
2017-12-24T08:30:33.303Z,101308
2017-12-24T08:33:01.227Z,101310
2017-12-24T08:35:29.915Z,101315
2017-12-24T08:37:58.124Z,101321
2017-12-24T08:40:26.081Z,101326
2017-12-24T08:42:54.064Z,101326
2017-12-24T08:45:21.963Z,101326
2017-12-24T08:47:50.615Z,101318
2017-12-24T08:50:18.580Z,101328
2017-12-24T08:52:46.499Z,101314
2017-12-24T08:55:15.160Z,101320
2017-12-24T08:57:43.335Z,101316
2017-12-24T09:00:11.292Z,101316
2017-12-24T09:02:39.385Z,101310
2017-12-24T09:05:07.831Z,101324
2017-12-24T09:07:35.772Z,101312
2017-12-24T09:10:03.846Z,101320
2017-12-24T09:12:31.743Z,101314
2017-12-24T09:14:59.677Z,101321
2017-12-24T09:17:27.612Z,101311
2017-12-24T09:19:55.553Z,101318
2017-12-24T09:22:23.476Z,101324
2017-12-24T09:24:51.395Z,101315
2017-12-24T09:27:19.312Z,101320
2017-12-24T09:29:47.561Z,101326
2017-12-24T09:32:16.280Z,101328
2017-12-24T09:34:44.225Z,101323
2017-12-24T09:37:12.139Z,101342
2017-12-24T09:39:40.808Z,101314
2017-12-24T09:42:08.738Z,101320
2017-12-24T09:44:37.848Z,101336
2017-12-24T09:47:06.676Z,101332
2017-12-24T09:49:34.596Z,101336
2017-12-24T09:52:03.433Z,101335
2017-12-24T09:54:31.371Z,101317
2017-12-24T09:57:00.009Z,101329
2017-12-24T09:59:27.892Z,101320
2017-12-24T10:01:56.183Z,101311
2017-12-24T10:04:24.107Z,101311
2017-12-24T10:06:52.030Z,101302
2017-12-24T10:09:19.988Z,101313
2017-12-24T10:11:47.866Z,101303
2017-12-24T10:14:16.568Z,101304
2017-12-24T10:16:44.520Z,101310
2017-12-24T10:19:13.453Z,101307
2017-12-24T10:21:41.424Z,101291
2017-12-24T10:24:09.348Z,101298
2017-12-24T10:26:37.260Z,101286
2017-12-24T10:29:05.192Z,101279
2017-12-24T10:31:33.856Z,101278
2017-12-24T10:34:01.972Z,101283
2017-12-24T10:36:29.944Z,101271
2017-12-24T10:38:57.880Z,101291
2017-12-24T10:41:26.970Z,101282
2017-12-24T10:43:54.873Z,101278
2017-12-24T10:46:22.805Z,101268
2017-12-24T10:48:53.145Z,101273
2017-12-24T10:51:21.088Z,101262
2017-12-24T10:53:49.041Z,101275
2017-12-24T10:56:16.984Z,101260
2017-12-24T10:58:45.662Z,101260
2017-12-24T11:01:13.588Z,101256
2017-12-24T11:03:41.904Z,101257
2017-12-24T11:06:09.844Z,101253
2017-12-24T11:08:37.764Z,101249
2017-12-24T11:11:05.708Z,101262
2017-12-24T11:13:33.655Z,101259
2017-12-24T11:16:01.610Z,101257
2017-12-24T11:18:30.328Z,101258
2017-12-24T11:20:58.232Z,101258
2017-12-24T11:23:26.171Z,101256
2017-12-24T11:25:54.547Z,101245
2017-12-24T11:28:22.507Z,101255
2017-12-24T11:30:50.431Z,101228
2017-12-24T11:33:18.370Z,101235
2017-12-24T11:35:46.268Z,101224
2017-12-24T11:38:14.177Z,101223
2017-12-24T11:40:42.123Z,101230
2017-12-24T11:43:10.052Z,101223
2017-12-24T11:45:38.301Z,101227
2017-12-24T11:48:06.241Z,101228
2017-12-24T11:50:35.653Z,101223
2017-12-24T11:53:04.348Z,101224
2017-12-24T11:55:33.072Z,101215
2017-12-24T11:58:00.995Z,101198
2017-12-24T12:00:28.971Z,101189
2017-12-24T12:02:57.688Z,101182
2017-12-24T12:05:25.631Z,101082
2017-12-24T12:07:54.293Z,101185
2017-12-24T12:10:23.220Z,101179
2017-12-24T12:12:51.159Z,101194
2017-12-24T12:15:19.090Z,101191
2017-12-24T12:17:47.083Z,101184
2017-12-24T12:20:16.488Z,101163
2017-12-24T12:22:44.455Z,101162
2017-12-24T12:25:13.867Z,101166
2017-12-24T12:27:41.791Z,101165
2017-12-24T12:30:10.070Z,101164
2017-12-24T12:32:38.785Z,101160
2017-12-24T12:35:06.764Z,101162
2017-12-24T12:37:34.776Z,101158
2017-12-24T12:40:02.760Z,101149
2017-12-24T12:42:30.699Z,101150
2017-12-24T12:44:58.687Z,101144
2017-12-24T12:47:26.602Z,101154
2017-12-24T12:49:54.531Z,101144
2017-12-24T12:52:22.530Z,101134
2017-12-24T12:54:50.452Z,101146
2017-12-24T12:57:18.411Z,101149
2017-12-24T12:59:47.088Z,101119
2017-12-24T13:02:16.787Z,101131
2017-12-24T13:04:44.732Z,101119
2017-12-24T13:07:12.632Z,101114
2017-12-24T13:09:42.019Z,101113
2017-12-24T13:12:09.928Z,101108
2017-12-24T13:14:38.592Z,101111
2017-12-24T13:17:06.559Z,101116
2017-12-24T13:19:34.923Z,101102
2017-12-24T13:22:02.858Z,101110
2017-12-24T13:24:30.760Z,101102
2017-12-24T13:26:58.679Z,101102
2017-12-24T13:29:26.595Z,101091
2017-12-24T13:31:54.767Z,101096
2017-12-24T13:34:22.735Z,101090
2017-12-24T13:36:50.709Z,101096
2017-12-24T13:39:18.928Z,101093
2017-12-24T13:41:46.871Z,101088
2017-12-24T13:44:14.830Z,101085
2017-12-24T13:46:43.512Z,101093
2017-12-24T13:49:12.199Z,101079
2017-12-24T13:51:40.183Z,101084
2017-12-24T13:54:08.168Z,101083
2017-12-24T13:56:36.835Z,101074
2017-12-24T13:59:04.782Z,101073
2017-12-24T14:01:32.757Z,101071
2017-12-24T14:04:00.747Z,101077
2017-12-24T14:06:29.423Z,101071
2017-12-24T14:08:58.852Z,101066
2017-12-24T14:11:27.514Z,101065
2017-12-24T14:13:56.194Z,101059
2017-12-24T14:16:24.137Z,101057
2017-12-24T14:18:52.059Z,101063
2017-12-24T14:21:20.000Z,101053
2017-12-24T14:23:47.971Z,101051
2017-12-24T14:26:16.355Z,101049
2017-12-24T14:28:44.340Z,101043
2017-12-24T14:31:13.001Z,101039
2017-12-24T14:33:41.352Z,101042
2017-12-24T14:36:09.305Z,101029
2017-12-24T14:38:37.215Z,101032
2017-12-24T14:41:05.188Z,101031
2017-12-24T14:43:33.125Z,101038
2017-12-24T14:46:01.868Z,101029
2017-12-24T14:48:29.795Z,101028
2017-12-24T14:50:57.990Z,101040
2017-12-24T14:53:26.668Z,101023
2017-12-24T14:55:54.602Z,101034
2017-12-24T14:58:22.532Z,101037
2017-12-24T15:00:51.200Z,101036
2017-12-24T15:03:19.109Z,101030
2017-12-24T15:05:47.059Z,101040
2017-12-24T15:08:14.980Z,101030
2017-12-24T15:10:42.935Z,101011
2017-12-24T15:13:10.823Z,101014
2017-12-24T15:15:38.769Z,101023
2017-12-24T15:18:07.113Z,101029
2017-12-24T15:20:35.823Z,101013
2017-12-24T15:23:03.795Z,101024
2017-12-24T15:25:31.776Z,101028
2017-12-24T15:27:59.974Z,101023
2017-12-24T15:30:27.944Z,101015
2017-12-24T15:32:55.887Z,101022
2017-12-24T15:35:23.795Z,101018
2017-12-24T15:37:52.135Z,101025
2017-12-24T15:40:20.036Z,101015
2017-12-24T15:42:48.105Z,101032
2017-12-24T15:45:16.247Z,101016
2017-12-24T15:47:44.191Z,101019
2017-12-24T15:50:12.135Z,101017
2017-12-24T15:52:41.565Z,101011
2017-12-24T15:55:09.475Z,101021
2017-12-24T15:57:37.415Z,101022
2017-12-24T16:00:05.800Z,101018
2017-12-24T16:02:34.471Z,101014
2017-12-24T16:05:02.440Z,101015
2017-12-24T16:07:30.380Z,101025
2017-12-24T16:09:58.303Z,101013
2017-12-24T16:12:26.248Z,101017
2017-12-24T16:14:54.163Z,101004
2017-12-24T16:17:22.206Z,100997
2017-12-24T16:19:50.397Z,100993
2017-12-24T16:22:18.835Z,100997
2017-12-24T16:24:47.499Z,100996
2017-12-24T16:27:15.448Z,100995
2017-12-24T16:29:43.375Z,100990
2017-12-24T16:32:12.063Z,100985
2017-12-24T16:34:39.987Z,100988
2017-12-24T16:37:07.980Z,100970
2017-12-24T16:39:35.967Z,100985
2017-12-24T16:42:03.926Z,100995
2017-12-24T16:44:31.978Z,100985
2017-12-24T16:46:59.899Z,100991
2017-12-24T16:49:28.225Z,100986
2017-12-24T16:51:56.919Z,100985
2017-12-24T16:54:25.607Z,100994
2017-12-24T16:56:54.284Z,100975
2017-12-24T16:59:22.950Z,100990
2017-12-24T17:01:51.183Z,100975
2017-12-24T17:04:19.168Z,100979
2017-12-24T17:06:47.103Z,100985
2017-12-24T17:09:15.090Z,100970
2017-12-24T17:11:43.049Z,100970
2017-12-24T17:14:11.261Z,100982
2017-12-24T17:16:39.261Z,100966
2017-12-24T17:19:07.199Z,100987
2017-12-24T17:21:35.402Z,100984
2017-12-24T17:24:03.407Z,100961
2017-12-24T17:26:31.493Z,100970
2017-12-24T17:28:59.425Z,100959
2017-12-24T17:31:28.103Z,100977
2017-12-24T17:33:57.231Z,100548
2017-12-24T17:36:25.180Z,100980
2017-12-24T17:38:53.119Z,100976
2017-12-24T17:41:21.153Z,100965
2017-12-24T17:43:49.075Z,100963
2017-12-24T17:46:17.015Z,100951
2017-12-24T17:48:44.948Z,100966
2017-12-24T17:51:12.880Z,100966
2017-12-24T17:53:40.815Z,100958
2017-12-24T17:56:08.753Z,100957
2017-12-24T17:58:36.687Z,100956
2017-12-24T18:01:05.649Z,100947
2017-12-24T18:03:33.607Z,100943
2017-12-24T18:06:01.568Z,100950
2017-12-24T18:08:29.487Z,100951
2017-12-24T18:10:57.435Z,100946
2017-12-24T18:13:25.343Z,100944
2017-12-24T18:15:53.647Z,100943
2017-12-24T18:18:21.610Z,100943
2017-12-24T18:20:49.538Z,100941
2017-12-24T18:23:18.480Z,100928
2017-12-24T18:25:46.411Z,100941
2017-12-24T18:28:14.363Z,100953
2017-12-24T18:30:42.335Z,100940
2017-12-24T18:33:10.288Z,100951
2017-12-24T18:35:38.579Z,100953
2017-12-24T18:38:06.535Z,100939
2017-12-24T18:40:34.473Z,100954
2017-12-24T18:43:02.428Z,100949
2017-12-24T18:45:30.347Z,100938
2017-12-24T18:47:59.949Z,100954
2017-12-24T18:50:27.906Z,100966
2017-12-24T18:52:55.826Z,100935
2017-12-24T18:55:24.072Z,100956
2017-12-24T18:57:52.052Z,100958
2017-12-24T19:00:20.725Z,100961
2017-12-24T19:02:48.712Z,100943
2017-12-24T19:05:16.667Z,100952
2017-12-24T19:07:44.641Z,100959
2017-12-24T19:10:13.330Z,100956
2017-12-24T19:12:41.281Z,100948
2017-12-24T19:15:09.259Z,100943
2017-12-24T19:17:37.255Z,100949
2017-12-24T19:20:05.196Z,100947
2017-12-24T19:22:34.899Z,100948
2017-12-24T19:25:02.863Z,100941
2017-12-24T19:27:30.905Z,100944
2017-12-24T19:29:58.873Z,100939
2017-12-24T19:32:26.812Z,100938
2017-12-24T19:34:54.764Z,100947
2017-12-24T19:37:23.486Z,100944
2017-12-24T19:39:51.736Z,100948
2017-12-24T19:42:20.529Z,100953
2017-12-24T19:44:48.479Z,100957
2017-12-24T19:47:16.453Z,100964
2017-12-24T19:49:44.447Z,100958
2017-12-24T19:52:12.391Z,100943
2017-12-24T19:54:40.508Z,100955
2017-12-24T19:57:08.448Z,100949
2017-12-24T19:59:37.451Z,100953
2017-12-24T20:02:05.550Z,100942
2017-12-24T20:04:33.465Z,100944
2017-12-24T20:07:01.457Z,100953
2017-12-24T20:09:29.800Z,100955
2017-12-24T20:11:57.819Z,100960
2017-12-24T20:14:25.731Z,100964
2017-12-24T20:16:53.691Z,100964
2017-12-24T20:19:21.672Z,100952
2017-12-24T20:21:49.656Z,100958
2017-12-24T20:24:18.640Z,100965
2017-12-24T20:26:46.655Z,100963
2017-12-24T20:29:14.579Z,100962
2017-12-24T20:31:43.987Z,100969
2017-12-24T20:34:13.396Z,100985
2017-12-24T20:36:41.382Z,100967
2017-12-24T20:39:10.059Z,100962
2017-12-24T20:41:38.005Z,100975
2017-12-24T20:44:06.005Z,100985
2017-12-24T20:46:33.951Z,100984
2017-12-24T20:49:02.273Z,100978
2017-12-24T20:51:30.216Z,100985
2017-12-24T20:53:58.176Z,100982
2017-12-24T20:56:26.079Z,100979
2017-12-24T20:58:53.990Z,100999
2017-12-24T21:01:21.943Z,100995
2017-12-24T21:03:49.911Z,100991
2017-12-24T21:06:17.882Z,100996
2017-12-24T21:08:45.824Z,100997
2017-12-24T21:11:13.833Z,100997
2017-12-24T21:13:42.113Z,101005
2017-12-24T21:16:10.179Z,101008
2017-12-24T21:18:38.151Z,101001
2017-12-24T21:21:06.059Z,101020
2017-12-24T21:23:33.972Z,100993
2017-12-24T21:26:01.975Z,101011
2017-12-24T21:28:29.896Z,101003
2017-12-24T21:30:58.597Z,100998
2017-12-24T21:33:26.533Z,100989
2017-12-24T21:35:54.889Z,101004
2017-12-24T21:38:23.586Z,101006
2017-12-24T21:40:51.739Z,101003
2017-12-24T21:43:19.696Z,101008
2017-12-24T21:45:47.655Z,101012
2017-12-24T21:48:15.590Z,101019
2017-12-24T21:50:43.855Z,101003
2017-12-24T21:53:11.787Z,101012
2017-12-24T21:55:40.479Z,101017
2017-12-24T21:58:08.459Z,100997
2017-12-24T22:00:37.172Z,101002
2017-12-24T22:03:05.816Z,101007
2017-12-24T22:05:34.117Z,101024
2017-12-24T22:08:02.787Z,101004
2017-12-24T22:10:30.714Z,101001
2017-12-24T22:12:58.659Z,101009
2017-12-24T22:15:26.591Z,101008
2017-12-24T22:17:54.582Z,100997
2017-12-24T22:20:22.506Z,101000
2017-12-24T22:22:50.471Z,101002
2017-12-24T22:25:18.731Z,100995
2017-12-24T22:27:46.704Z,100992
2017-12-24T22:30:14.635Z,100984
2017-12-24T22:32:43.264Z,100987
2017-12-24T22:35:11.217Z,100994
2017-12-24T22:37:39.192Z,100987
2017-12-24T22:40:07.149Z,100995
2017-12-24T22:42:35.103Z,101008
2017-12-24T22:45:03.519Z,100997
2017-12-24T22:47:31.468Z,100992
2017-12-24T22:49:59.367Z,100999
2017-12-24T22:52:28.063Z,100987
2017-12-24T22:54:56.018Z,100989
2017-12-24T22:57:23.960Z,100985
2017-12-24T22:59:51.905Z,100976
2017-12-24T23:02:20.568Z,100975
2017-12-24T23:04:48.873Z,100988
2017-12-24T23:07:17.559Z,100986
2017-12-24T23:09:46.275Z,101002
2017-12-24T23:12:14.241Z,100986
2017-12-24T23:14:42.181Z,100996
2017-12-24T23:17:11.000Z,100996
2017-12-24T23:19:38.951Z,100981
2017-12-24T23:22:06.902Z,100970
2017-12-24T23:24:34.936Z,100980
2017-12-24T23:27:02.891Z,100978
2017-12-24T23:29:30.827Z,100976
2017-12-24T23:31:59.172Z,100969
2017-12-24T23:34:27.196Z,100958
2017-12-24T23:36:55.116Z,100968
2017-12-24T23:39:23.067Z,100977
2017-12-24T23:41:51.777Z,100971
2017-12-24T23:44:19.732Z,100977
2017-12-24T23:46:47.651Z,100979
2017-12-24T23:49:15.615Z,100972
2017-12-24T23:51:43.987Z,100973
2017-12-24T23:54:11.890Z,100968
2017-12-24T23:56:39.851Z,100978
2017-12-24T23:59:07.791Z,100976
